Terminal Aerodrome Forecast
Issued by NWS

Home | Current Version | Previous Version | Text Only | Print | Product List | Glossary On
Versions: 1 2 3 4 5 6 7 8 9 10 11 12 13
000
FTUS45 KGGW 241100
TAFGDV
TAF
KGDV 241128Z 2412/2512 22007KT P6SM BKN150
     FM241300 27008KT P6SM SCT080
     FM241800 29017KT P6SM BKN070
     FM250100 29010KT P6SM SCT100
      AMD LTD TO CLD VIS AND WIND=

USA.gov is the U.S. government's official web portal to all federal, state and local government web resources and services.